Pottsboro, Texas
Current Conditions -  °F | °C
As of 10:55 PM on Friday 19 Dec 2014 (Local Time) from KGYI Reporting Station
Haze Haze  
Wind Chill: 44°   Ceiling: 600
Heat Index: 44°   Visibility: 5mi
Dew Point: 43°   Wind: 0mph
Humidity: 97%   Direction: NA
Pressure: 30.24"   Gusts: NA
Location:  33.76°N, 96.67°W
Report Text: KGYI 200455Z AUTO 00000KT 5SM BR OVC006 07/06 A3024 RMK AO2 T00670063
Loading
Personal Weather Stations






























Interactive Weather Map New forecast layout! Learn more

10-Day Weather Forecast

Advertisements
Track Severe Weather on mobile